Saint-Jean-De-Dieu, Canada
Current Conditions -  °F | °C
As of 7:10 PM on Tuesday 25 Nov 2014 (Local Time) from CYYY Reporting Station
Rain Showers Rain Showers  
Wind Chill: 35°   Ceiling: 4500
Heat Index: 41°   Visibility: 15mi
Dew Point: 30°   Wind: 9mph
Humidity: 65%   Direction: 260°W
Pressure: 29.69"   Gusts: 17mph
Location:  48.02°N, 69.05°W
Report Text: CYYY 260010Z 26008G15KT 15SM -SHRA OVC045 05/M01 A2969 RMK SC8 PRESRR SLP057
Loading
Personal Weather Stations






























Interactive Weather Map New forecast layout! Learn more

10-Day Weather Forecast

Advertisements
Track Severe Weather on mobile